Time;durP1;ratioP1;P1;durP2;ratioP2;P2;SDS_P1;SDS_P2;PMS_P1;PMS_P2;Temp;Humidity;BMP_temperature;BMP_pressure;BME280_temperature;BME280_humidity;BME280_pressure;Samples;Min_cycle;Max_cycle;Signal;HPM_P1;HPM_P2
2022/10/07 00:00:24;;;;;;;15.17;4.10;;;;;;;8.38;97.94;102586.06;5116881;27;20027;-86
2022/10/07 00:02:49;;;;;;;16.73;4.10;;;;;;;8.36;97.62;102577.25;5099880;27;20177;-85
2022/10/07 00:05:14;;;;;;;17.67;3.65;;;;;;;8.34;97.38;102584.66;5116407;27;20471;-86
2022/10/07 00:07:43;;;;;;;15.45;4.07;;;;;;;8.36;97.57;102582.69;5117219;27;20039;-86
2022/10/07 00:10:11;;;;;;;18.90;4.00;;;;;;;8.32;97.71;102573.16;5117259;27;20039;-86
2022/10/07 00:12:36;;;;;;;11.07;3.70;;;;;;;8.23;98.55;102573.09;5135281;27;20042;-86
2022/10/07 00:15:04;;;;;;;20.55;3.45;;;;;;;8.29;98.69;102581.59;5116651;27;20031;-86
2022/10/07 00:17:30;;;;;;;12.23;3.53;;;;;;;8.23;98.54;102575.81;5134946;27;20035;-86
2022/10/07 00:19:56;;;;;;;19.98;3.55;;;;;;;8.22;98.65;102574.13;5134915;27;20027;-86
2022/10/07 00:22:22;;;;;;;14.57;3.58;;;;;;;8.25;98.66;102572.94;5116315;27;20034;-86
2022/10/07 00:24:47;;;;;;;14.90;4.13;;;;;;;8.16;98.96;102554.97;5116707;28;20058;-85
2022/10/07 00:27:13;;;;;;;19.07;3.93;;;;;;;8.17;98.96;102570.19;5116376;28;20104;-86
2022/10/07 00:29:38;;;;;;;16.60;3.20;;;;;;;8.13;98.96;102568.81;5116587;28;20046;-86
2022/10/07 00:32:04;;;;;;;13.80;3.47;;;;;;;8.06;99.36;102564.03;5116343;28;20175;-86
2022/10/07 00:34:29;;;;;;;14.43;3.85;;;;;;;8.02;100.00;102551.00;5134390;28;20029;-86
2022/10/07 00:36:54;;;;;;;17.23;3.87;;;;;;;8.07;100.00;102563.03;5116196;28;20548;-87
2022/10/07 00:39:20;;;;;;;17.40;3.53;;;;;;;8.06;100.00;102557.75;5099248;28;20417;-86
2022/10/07 00:41:51;;;;;;;11.50;3.80;;;;;;;8.01;100.00;102557.38;5116171;28;20027;-86
2022/10/07 00:44:34;;;;;;;16.75;4.15;;;;;;;8.02;100.00;102556.41;5116024;28;20034;-86
2022/10/07 00:47:22;;;;;;;13.60;3.70;;;;;;;8.00;100.00;102556.56;5134859;28;20027;-86
2022/10/07 00:49:52;;;;;;;12.13;3.40;;;;;;;7.94;100.00;102551.75;5116456;28;20423;-86
2022/10/07 00:52:22;;;;;;;15.57;3.60;;;;;;;7.98;100.00;102560.41;5134576;28;20083;-86
2022/10/07 00:54:51;;;;;;;15.07;3.63;;;;;;;7.94;100.00;102553.59;5135076;28;20027;-86
2022/10/07 00:57:28;;;;;;;19.33;4.90;;;;;;;7.93;100.00;102550.06;5116212;28;20031;-85
2022/10/07 00:59:55;;;;;;;19.35;4.18;;;;;;;7.91;100.00;102549.34;5116363;28;20042;-86
2022/10/07 01:02:25;;;;;;;12.90;4.28;;;;;;;7.88;100.00;102541.56;5134607;28;20040;-86
2022/10/07 01:04:52;;;;;;;16.07;3.70;;;;;;;7.86;100.00;102539.03;5134419;28;20063;-85
2022/10/07 01:07:20;;;;;;;17.60;3.63;;;;;;;7.87;100.00;102538.03;5098466;28;20097;-86
2022/10/07 01:09:50;;;;;;;26.05;4.32;;;;;;;7.89;100.00;102540.56;5135832;27;20066;-86
2022/10/07 01:12:44;;;;;;;18.75;3.38;;;;;;;7.85;100.00;102533.78;5138351;27;20538;-86
2022/10/07 01:15:29;;;;;;;18.15;3.72;;;;;;;7.80;100.00;102538.81;5119837;27;20043;-85
2022/10/07 01:18:23;;;;;;;10.50;3.20;;;;;;;7.73;100.00;102533.16;5138265;27;20019;-85
2022/10/07 01:21:02;;;;;;;17.67;3.67;;;;;;;7.69;100.00;102527.22;5138782;27;20034;-86
2022/10/07 01:23:43;;;;;;;18.30;4.35;;;;;;;7.67;100.00;102531.91;5120464;27;20074;-85
2022/10/07 01:26:46;;;;;;;15.68;3.10;;;;;;;7.65;100.00;102520.44;5138649;27;20023;-86
2022/10/07 01:29:56;;;;;;;12.65;3.67;;;;;;;7.64;100.00;102520.59;5138429;27;20051;-86
2022/10/07 01:32:30;;;;;;;11.93;3.80;;;;;;;7.65;100.00;102516.91;5119788;27;20095;-86
2022/10/07 01:34:58;;;;;;;16.38;3.30;;;;;;;7.66;100.00;102502.38;5119156;27;20050;-86
2022/10/07 01:37:29;;;;;;;16.33;3.63;;;;;;;7.63;100.00;102505.38;5119054;27;20034;-86
2022/10/07 01:40:01;;;;;;;16.58;3.47;;;;;;;7.63;100.00;102495.44;5119674;27;20134;-86
2022/10/07 01:42:27;;;;;;;17.85;4.15;;;;;;;7.63;100.00;102486.47;5120048;27;20371;-85
2022/10/07 01:44:55;;;;;;;18.97;3.70;;;;;;;7.63;100.00;102479.22;5101973;27;20027;-86
2022/10/07 01:47:21;;;;;;;17.83;3.90;;;;;;;7.63;100.00;102473.81;5102453;27;20058;-85
2022/10/07 01:49:46;;;;;;;13.93;3.85;;;;;;;7.62;100.00;102469.41;5119196;27;20047;-86
2022/10/07 01:52:49;;;;;;;14.55;3.40;;;;;;;7.62;100.00;102471.25;5102179;27;20031;-86
2022/10/07 01:55:21;;;;;;;16.80;3.90;;;;;;;7.63;100.00;102464.84;5035589;27;20489;-86
2022/10/07 01:58:19;;;;;;;11.98;3.83;;;;;;;7.61;100.00;102456.06;5119340;27;20030;-86
2022/10/07 02:00:54;;;;;;;17.02;4.72;;;;;;;7.65;100.00;102463.69;5119251;27;20019;-86
2022/10/07 02:03:29;;;;;;;19.40;4.32;;;;;;;7.67;100.00;102458.13;5137345;27;20031;-85
2022/10/07 02:06:00;;;;;;;20.45;4.57;;;;;;;7.65;100.00;102447.50;5118839;27;20031;-85
2022/10/07 02:08:44;;;;;;;17.90;4.00;;;;;;;7.63;100.00;102452.22;5119629;27;20046;-86
2022/10/07 02:11:26;;;;;;;14.38;4.13;;;;;;;7.62;100.00;102447.81;5119130;27;20023;-86
2022/10/07 02:13:59;;;;;;;18.20;3.90;;;;;;;7.63;100.00;102445.94;5136832;27;20505;-86
2022/10/07 02:16:34;;;;;;;18.63;4.75;;;;;;;7.61;100.00;102438.00;5119239;27;20050;-86
2022/10/07 02:19:05;;;;;;;17.83;4.43;;;;;;;7.63;100.00;102445.94;5118675;27;20031;-86
2022/10/07 02:21:34;;;;;;;18.23;4.75;;;;;;;7.62;100.00;102438.84;5118489;27;20030;-86
2022/10/07 02:24:01;;;;;;;15.18;4.22;;;;;;;7.64;100.00;102434.97;5118139;27;20068;-85
2022/10/07 02:26:28;;;;;;;20.08;4.57;;;;;;;7.61;100.00;102432.59;5101766;27;20072;-86
2022/10/07 02:28:55;;;;;;;15.48;4.30;;;;;;;7.62;100.00;102426.19;5101413;27;20039;-86
2022/10/07 02:31:30;;;;;;;17.70;4.50;;;;;;;7.63;100.00;102427.03;5118635;27;20031;-86
2022/10/07 02:33:57;;;;;;;17.05;3.97;;;;;;;7.60;100.00;102419.25;5136811;27;20035;-86
2022/10/07 02:36:30;;;;;;;13.32;3.80;;;;;;;7.61;100.00;102416.38;5117971;27;20023;-86
2022/10/07 02:38:57;;;;;;;22.85;4.63;;;;;;;7.63;100.00;102418.94;5137006;27;20027;-86
2022/10/07 02:41:50;;;;;;;14.48;4.18;;;;;;;7.64;100.00;102418.78;5118333;27;20031;-86
2022/10/07 02:44:24;;;;;;;15.88;3.92;;;;;;;7.63;100.00;102416.22;5118838;27;20027;-86
2022/10/07 02:47:19;;;;;;;17.08;4.25;;;;;;;7.58;100.00;102413.16;5118469;27;20050;-86
2022/10/07 02:49:52;;;;;;;18.13;3.90;;;;;;;7.48;100.00;102395.19;5136535;27;20088;-86
2022/10/07 02:52:19;;;;;;;17.67;4.13;;;;;;;7.47;100.00;102396.22;5136104;27;20471;-86
2022/10/07 02:54:47;;;;;;;19.25;4.25;;;;;;;7.43;100.00;102404.78;5117878;27;20031;-86
2022/10/07 02:57:16;;;;;;;19.50;4.25;;;;;;;7.37;100.00;102398.16;5136337;27;20023;-86
2022/10/07 02:59:44;;;;;;;15.18;4.50;;;;;;;7.37;100.00;102390.03;5118676;27;20023;-86
2022/10/07 03:02:14;;;;;;;13.27;3.83;;;;;;;7.36;100.00;102393.75;5118407;27;20031;-86
2022/10/07 03:04:40;;;;;;;14.18;4.30;;;;;;;7.33;100.00;102388.66;5117765;27;20023;-86
2022/10/07 03:07:06;;;;;;;15.70;4.03;;;;;;;7.27;100.00;102387.44;5100806;27;20078;-91
2022/10/07 03:09:31;;;;;;;13.67;3.80;;;;;;;7.26;100.00;102387.59;5100649;27;20063;-86
2022/10/07 03:11:56;;;;;;;20.37;4.23;;;;;;;7.22;100.00;102386.19;5100518;27;20046;-86
2022/10/07 03:14:23;;;;;;;18.67;4.37;;;;;;;7.19;100.00;102392.78;5135921;27;20032;-86
2022/10/07 03:16:52;;;;;;;18.33;4.20;;;;;;;7.19;100.00;102382.81;5136191;27;20030;-86
2022/10/07 03:19:17;;;;;;;19.45;4.38;;;;;;;7.16;100.00;102380.41;5136137;27;20527;-86
2022/10/07 03:21:43;;;;;;;24.13;4.57;;;;;;;7.13;100.00;102372.63;5117516;27;20106;-86
2022/10/07 03:24:10;;;;;;;22.33;4.50;;;;;;;7.11;100.00;102374.63;5100277;27;20087;-86
2022/10/07 03:26:35;;;;;;;14.88;3.85;;;;;;;7.07;100.00;102373.25;5117255;27;20348;-86
2022/10/07 03:29:01;;;;;;;15.75;4.53;;;;;;;7.02;100.00;102367.47;5100039;27;20042;-86
2022/10/07 03:31:27;;;;;;;17.60;4.40;;;;;;;7.00;100.00;102364.94;5117152;27;20119;-86
2022/10/07 03:33:54;;;;;;;16.23;4.22;;;;;;;6.98;100.00;102366.06;5100281;27;20121;-86
2022/10/07 03:36:19;;;;;;;16.80;4.80;;;;;;;6.96;100.00;102368.09;5135505;27;20027;-86
2022/10/07 03:38:45;;;;;;;21.30;4.40;;;;;;;6.97;100.00;102365.25;5116925;27;20111;-86
2022/10/07 03:41:10;;;;;;;20.30;4.33;;;;;;;6.97;100.00;102365.25;5100004;27;20045;-86
2022/10/07 03:43:36;;;;;;;18.57;4.57;;;;;;;6.97;100.00;102356.31;5117421;27;20031;-86
2022/10/07 03:46:02;;;;;;;22.35;5.03;;;;;;;6.98;100.00;102363.38;5100076;27;20319;-86
2022/10/07 03:48:29;;;;;;;16.30;4.15;;;;;;;6.99;100.00;102365.06;5100385;27;20062;-86
2022/10/07 03:50:56;;;;;;;15.93;4.03;;;;;;;6.99;100.00;102357.81;5100041;27;20118;-86
2022/10/07 03:53:22;;;;;;;26.45;4.15;;;;;;;7.00;100.00;102356.81;5117076;27;20084;-86
2022/10/07 03:55:48;;;;;;;13.85;4.40;;;;;;;7.05;100.00;102348.25;5099809;27;20027;-86
2022/10/07 03:58:13;;;;;;;18.53;3.80;;;;;;;7.06;100.00;102358.06;5116895;27;20030;-89
2022/10/07 04:00:40;;;;;;;19.03;4.57;;;;;;;7.06;100.00;102360.75;5116371;27;20113;-86
2022/10/07 04:03:06;;;;;;;23.25;4.82;;;;;;;7.05;100.00;102359.06;5117487;27;20046;-86
2022/10/07 04:05:33;;;;;;;17.85;4.70;;;;;;;6.99;100.00;102347.03;5116287;27;20035;-86
2022/10/07 04:07:58;;;;;;;23.15;4.22;;;;;;;7.01;100.00;102350.44;5116548;27;20041;-86
2022/10/07 04:10:24;;;;;;;18.53;4.53;;;;;;;7.01;100.00;102353.13;5117272;27;20031;-86
2022/10/07 04:12:52;;;;;;;17.90;4.23;;;;;;;6.97;100.00;102349.03;5100136;27;20141;-86
2022/10/07 04:15:21;;;;;;;16.13;4.20;;;;;;;7.00;100.00;102345.19;5126415;27;20080;-86
2022/10/07 04:17:47;;;;;;;15.00;4.32;;;;;;;7.00;100.00;102345.19;5134842;27;20030;-86
2022/10/07 04:20:15;;;;;;;24.02;4.47;;;;;;;7.02;100.00;102341.31;5116758;27;20035;-86
2022/10/07 04:22:40;;;;;;;17.30;4.55;;;;;;;7.02;100.00;102341.31;5116610;28;20042;-86
2022/10/07 04:27:56;;;;;;;15.98;4.63;;;;;;;6.92;100.00;102337.84;5135346;27;20042;-87
2022/10/07 04:30:24;;;;;;;20.90;5.00;;;;;;;6.90;100.00;102344.44;5098800;28;20104;-86
2022/10/07 04:32:49;;;;;;;20.00;4.88;;;;;;;6.82;100.00;102339.78;5116690;28;20084;-86
2022/10/07 04:35:16;;;;;;;23.98;4.88;;;;;;;6.80;100.00;102339.94;5116274;28;20035;-86
2022/10/07 04:37:42;;;;;;;22.27;4.70;;;;;;;6.76;100.00;102337.69;5099292;28;20035;-86
2022/10/07 04:40:09;;;;;;;16.97;4.57;;;;;;;6.75;100.00;102333.34;5116822;28;20042;-86
2022/10/07 04:45:18;;;;;;;17.33;4.50;;;;;;;6.71;100.00;102346.25;5139415;27;20042;-86
2022/10/07 04:47:44;;;;;;;19.13;4.43;;;;;;;6.70;100.00;102347.25;5103365;27;20027;-86
2022/10/07 04:50:09;;;;;;;21.93;5.67;;;;;;;6.72;100.00;102344.41;5120481;27;20031;-86
2022/10/07 04:52:39;;;;;;;14.33;4.80;;;;;;;6.71;100.00;102343.56;5120588;27;20092;-86
2022/10/07 04:55:05;;;;;;;15.35;4.22;;;;;;;6.68;100.00;102347.41;5138358;27;20576;-86
2022/10/07 04:57:31;;;;;;;16.92;4.93;;;;;;;6.67;100.00;102332.25;5103233;27;20023;-86
2022/10/07 04:59:56;;;;;;;26.17;5.40;;;;;;;6.65;100.00;102328.84;5120912;27;20038;-86
2022/10/07 05:02:22;;;;;;;18.42;5.07;;;;;;;6.64;100.00;102326.28;5102972;27;20074;-86
2022/10/07 05:04:47;;;;;;;20.55;5.45;;;;;;;6.62;100.00;102331.00;5103034;27;20031;-86
2022/10/07 05:07:13;;;;;;;16.77;4.60;;;;;;;6.61;100.00;102326.59;5102934;27;20187;-86
2022/10/07 05:09:38;;;;;;;19.83;4.35;;;;;;;6.62;100.00;102320.22;5103080;27;20031;-86
2022/10/07 05:12:05;;;;;;;21.03;5.70;;;;;;;6.61;100.00;102329.28;5119428;27;20395;-86
2022/10/07 05:14:31;;;;;;;19.83;5.20;;;;;;;6.57;100.00;102325.19;5103204;27;20027;-86
2022/10/07 05:16:57;;;;;;;19.98;4.78;;;;;;;6.61;100.00;102323.91;5102956;27;20027;-86
2022/10/07 05:19:22;;;;;;;28.98;5.25;;;;;;;6.59;100.00;102318.66;5102447;27;20513;-86
2022/10/07 05:21:47;;;;;;;18.58;4.35;;;;;;;6.60;100.00;102309.56;5102905;27;20490;-86
2022/10/07 05:24:13;;;;;;;19.40;4.67;;;;;;;6.65;100.00;102303.72;5102571;27;20394;-86
2022/10/07 05:26:38;;;;;;;19.70;4.80;;;;;;;6.67;100.00;102305.28;5102525;27;20080;-86
2022/10/07 05:29:04;;;;;;;20.43;4.30;;;;;;;6.65;100.00;102304.56;5102493;27;20050;-85
2022/10/07 05:31:33;;;;;;;18.80;4.30;;;;;;;6.66;100.00;102303.56;5119817;27;20379;-89
2022/10/07 05:34:05;;;;;;;19.30;4.15;;;;;;;6.66;100.00;102300.03;5119888;27;20395;-90
2022/10/07 05:36:33;;;;;;;17.10;3.45;;;;;;;6.66;100.00;102306.25;5119393;27;20355;-90
2022/10/07 05:39:07;;;;;;;21.98;4.53;;;;;;;6.65;100.00;102301.03;5119219;27;20061;-90
2022/10/07 05:41:44;;;;;;;20.15;4.07;;;;;;;6.60;100.00;102295.22;5103491;27;20038;-90
2022/10/07 05:44:09;;;;;;;23.33;4.35;;;;;;;6.61;100.00;102295.06;5119745;27;20051;-87
2022/10/07 05:46:35;;;;;;;18.30;3.80;;;;;;;6.60;100.00;102292.53;5118919;27;20027;-85
2022/10/07 05:49:00;;;;;;;15.17;3.80;;;;;;;6.64;100.00;102300.19;5102715;27;20050;-86
2022/10/07 05:51:26;;;;;;;21.55;4.22;;;;;;;6.65;100.00;102301.88;5102086;27;20273;-86
2022/10/07 05:53:55;;;;;;;22.20;4.13;;;;;;;6.62;100.00;102288.69;5118644;27;20471;-85
2022/10/07 05:56:20;;;;;;;17.67;4.40;;;;;;;6.64;100.00;102284.00;5118077;27;20049;-85
2022/10/07 05:58:47;;;;;;;14.23;3.83;;;;;;;6.63;100.00;102285.00;5118624;27;20546;-85
2022/10/07 06:01:16;;;;;;;20.70;4.20;;;;;;;6.70;100.00;102284.38;5118846;27;20027;-85
2022/10/07 06:03:43;;;;;;;26.17;4.78;;;;;;;6.72;100.00;102285.06;5118816;27;20118;-85
2022/10/07 06:06:08;;;;;;;14.60;3.55;;;;;;;6.71;100.00;102275.28;5118362;27;20023;-85
2022/10/07 06:08:35;;;;;;;21.30;3.37;;;;;;;6.74;100.00;102281.22;5118786;27;20026;-84
2022/10/07 06:13:51;;;;;;;16.88;3.40;;;;;;;6.79;100.00;102280.75;5136969;27;20050;-84
2022/10/07 06:16:16;;;;;;;20.25;3.45;;;;;;;6.80;100.00;102269.78;5118174;27;20027;-85
2022/10/07 06:18:42;;;;;;;14.03;2.87;;;;;;;6.91;100.00;102271.41;5117818;27;20459;-84
2022/10/07 06:21:07;;;;;;;14.43;3.20;;;;;;;6.94;100.00;102271.09;5118371;27;20034;-84
2022/10/07 06:23:37;;;;;;;17.65;3.30;;;;;;;7.04;100.00;102281.78;5135949;27;20114;-84
2022/10/07 06:26:08;;;;;;;20.80;3.47;;;;;;;7.02;100.00;102265.75;5118883;27;20110;-84
2022/10/07 06:28:38;;;;;;;25.58;4.20;;;;;;;7.06;100.00;102269.00;5117974;27;20019;-85
2022/10/07 06:31:05;;;;;;;20.52;3.15;;;;;;;7.14;100.00;102271.75;5137677;27;20047;-85
2022/10/07 06:33:31;;;;;;;16.65;3.50;;;;;;;7.22;100.00;102273.69;5118538;27;20126;-85
2022/10/07 06:36:03;;;;;;;15.60;3.60;;;;;;;7.24;100.00;102268.13;5136090;27;20450;-84
2022/10/07 06:38:28;;;;;;;21.90;3.13;;;;;;;7.35;100.00;102268.69;5117704;27;20088;-84
2022/10/07 06:40:58;;;;;;;12.27;2.83;;;;;;;7.45;100.00;102279.38;5117655;27;20459;-84
2022/10/07 06:43:30;;;;;;;11.00;3.45;;;;;;;7.48;100.00;102270.09;5117472;27;20016;-84
2022/10/07 06:46:01;;;;;;;13.65;3.08;;;;;;;7.59;100.00;102271.69;5118099;27;20079;-86
2022/10/07 06:48:39;;;;;;;15.82;3.10;;;;;;;7.68;100.00;102278.84;5135705;27;20050;-85
2022/10/07 06:51:08;;;;;;;19.83;2.90;;;;;;;7.74;100.00;102270.09;5103048;27;20055;-85
2022/10/07 06:53:33;;;;;;;16.67;3.28;;;;;;;7.82;100.00;102280.91;5117344;27;20034;-86
2022/10/07 06:56:03;;;;;;;14.20;2.75;;;;;;;7.87;100.00;102275.03;5117727;27;20031;-85
2022/10/07 06:58:29;;;;;;;15.40;3.13;;;;;;;7.87;100.00;102278.59;5116890;27;20532;-85
2022/10/07 07:00:56;;;;;;;15.60;3.30;;;;;;;7.94;100.00;102275.22;5135744;27;20055;-85
2022/10/07 07:03:23;;;;;;;17.73;3.00;;;;;;;8.04;100.00;102281.34;5100585;27;20058;-85
2022/10/07 07:05:55;;;;;;;17.00;3.00;;;;;;;8.05;100.00;102273.06;5136050;27;20039;-85
2022/10/07 07:08:30;;;;;;;14.82;2.78;;;;;;;8.11;100.00;102273.44;5117399;27;20027;-85
2022/10/07 07:11:04;;;;;;;12.77;2.58;;;;;;;8.14;100.00;102267.69;5117543;27;20084;-85
2022/10/07 07:13:33;;;;;;;14.18;2.92;;;;;;;8.20;100.00;102272.44;5117856;27;20118;-85
2022/10/07 07:16:02;;;;;;;11.30;2.60;;;;;;;8.26;100.00;102274.47;5117206;27;20031;-85
2022/10/07 07:18:29;;;;;;;12.80;3.05;;;;;;;8.27;100.00;102270.78;5117569;27;20180;-85
2022/10/07 07:21:00;;;;;;;16.23;3.10;;;;;;;8.35;100.00;102275.34;5135530;27;20019;-85
2022/10/07 07:23:31;;;;;;;12.73;2.97;;;;;;;8.40;100.00;102281.97;5117537;27;20027;-85
2022/10/07 07:25:59;;;;;;;15.98;2.97;;;;;;;8.47;100.00;102287.56;5117507;27;20023;-85
2022/10/07 07:28:27;;;;;;;14.75;3.83;;;;;;;8.55;100.00;102289.47;5116953;27;20062;-85
2022/10/07 07:30:55;;;;;;;20.63;3.28;;;;;;;8.60;100.00;102278.97;5117544;27;20046;-85
2022/10/07 07:33:23;;;;;;;11.52;3.00;;;;;;;8.65;100.00;102284.75;5116916;27;20023;-86
2022/10/07 07:35:52;;;;;;;23.07;3.13;;;;;;;8.72;100.00;102287.63;5117127;27;20027;-86
2022/10/07 07:38:19;;;;;;;16.17;3.40;;;;;;;8.75;100.00;102277.31;5116957;27;20118;-86
2022/10/07 07:40:44;;;;;;;22.67;3.10;;;;;;;8.84;100.00;102274.59;5135400;27;20080;-86
2022/10/07 07:43:19;;;;;;;10.13;3.30;;;;;;;8.88;100.00;102274.09;5116390;27;20027;-84
2022/10/07 07:45:50;;;;;;;19.58;3.85;;;;;;;8.97;100.00;102266.81;5116870;27;20054;-84
2022/10/07 07:48:16;;;;;;;17.25;3.88;;;;;;;9.09;99.75;102270.88;5100802;27;20059;-86
2022/10/07 07:50:42;;;;;;;10.77;2.97;;;;;;;9.17;98.85;102269.16;5116770;27;20466;-85
2022/10/07 07:53:08;;;;;;;15.18;3.55;;;;;;;9.23;98.39;102266.63;5116194;27;20042;-85
2022/10/07 07:55:33;;;;;;;15.32;3.25;;;;;;;9.27;98.55;102265.25;5116271;27;20118;-85
2022/10/07 07:57:58;;;;;;;14.20;3.37;;;;;;;9.39;97.78;102279.28;5135159;27;20031;-85
2022/10/07 08:00:24;;;;;;;13.23;4.00;;;;;;;9.44;98.02;102270.63;5100211;27;20473;-85
2022/10/07 08:02:51;;;;;;;10.57;3.10;;;;;;;9.51;97.66;102268.94;5116534;27;20386;-85
2022/10/07 08:05:17;;;;;;;13.80;3.15;;;;;;;9.64;97.75;102279.22;5116579;27;20032;-86
2022/10/07 08:07:42;;;;;;;17.30;3.20;;;;;;;9.68;96.73;102269.72;5116895;27;20031;-86
2022/10/07 08:10:10;;;;;;;8.88;2.50;;;;;;;9.75;96.00;102273.41;5134845;27;20028;-85
2022/10/07 08:12:38;;;;;;;14.17;2.73;;;;;;;9.80;95.45;102271.03;5100150;27;20094;-86
2022/10/07 08:15:04;;;;;;;20.02;3.58;;;;;;;9.88;94.88;102255.78;5135091;27;20076;-86
2022/10/07 08:17:32;;;;;;;12.55;3.30;;;;;;;9.98;94.66;102262.66;5116393;27;20031;-86
2022/10/07 08:19:57;;;;;;;12.02;2.90;;;;;;;10.09;94.14;102255.16;5116483;28;20031;-86
2022/10/07 08:22:23;;;;;;;17.77;3.73;;;;;;;10.14;93.76;102256.31;5134210;27;20074;-86
2022/10/07 08:24:48;;;;;;;17.93;3.33;;;;;;;10.28;93.19;102265.53;5134669;27;20026;-86
2022/10/07 08:27:14;;;;;;;13.97;2.97;;;;;;;10.31;92.92;102251.63;5134687;27;20073;-86
2022/10/07 08:29:44;;;;;;;13.65;2.72;;;;;;;10.42;91.84;102249.53;5120085;28;20050;-88
2022/10/07 08:32:39;;;;;;;;;;;;;;;;;;;;;
2022/10/07 08:35:13;;;;;;;23.58;3.25;;;;;;;10.60;91.72;102251.97;5134280;28;20046;-88
2022/10/07 08:37:41;;;;;;;15.50;3.28;;;;;;;10.73;91.21;102254.91;5133433;28;20522;-88
2022/10/07 08:40:16;;;;;;;13.45;2.60;;;;;;;10.81;91.28;102246.72;5133220;28;20063;-88
2022/10/07 08:42:55;;;;;;;;;;;;;;;;;;;;;
2022/10/07 08:45:32;;;;;;;15.95;3.47;;;;;;;10.99;89.07;102240.94;5134935;28;20038;-88
2022/10/07 08:48:08;;;;;;;14.77;2.73;;;;;;;11.08;89.40;102232.72;5132827;28;20475;-88
2022/10/07 08:50:41;;;;;;;10.55;2.25;;;;;;;11.18;88.72;102233.31;5133698;28;20029;-88
2022/10/07 08:53:20;;;;;;;10.25;2.67;;;;;;;11.26;88.81;102224.22;5132999;28;20035;-92
2022/10/07 08:56:08;;;;;;;12.65;2.78;;;;;;;11.41;88.23;102231.34;5133376;28;20459;-88
2022/10/07 08:58:48;;;;;;;11.85;2.58;;;;;;;11.48;87.88;102222.44;5133254;28;20100;-88
2022/10/07 09:01:31;;;;;;;13.60;2.97;;;;;;;11.56;87.09;102216.91;5133471;28;20033;-89
2022/10/07 09:04:26;;;;;;;12.70;2.55;;;;;;;11.67;86.60;102215.59;5133230;28;20031;-90
2022/10/07 09:07:17;;;;;;;13.27;2.15;;;;;;;11.84;86.18;102227.09;5133366;28;20066;-88
2022/10/07 09:09:56;;;;;;;;;;;;;;;;;;;;;
2022/10/07 09:12:37;;;;;;;12.57;2.42;;;;;;;11.95;86.29;102214.91;5134945;28;20046;-88
2022/10/07 09:16:00;;;;;;;7.33;2.17;;;;;;;12.09;85.52;102214.88;5116388;28;20066;-86
2022/10/07 09:18:43;;;;;;;12.98;2.08;;;;;;;12.20;83.50;102205.34;5043256;28;20046;-87
2022/10/07 09:21:32;;;;;;;9.38;2.20;;;;;;;12.33;83.42;102203.81;5100690;28;20035;-87
2022/10/07 09:24:23;;;;;;;13.85;2.15;;;;;;;12.51;82.87;102215.09;5133138;28;20379;-86
2022/10/07 09:26:54;;;;;;;13.85;2.40;;;;;;;12.60;82.41;102202.19;5134212;28;20030;-88
2022/10/07 09:29:40;;;;;;;10.30;2.17;;;;;;;12.78;80.77;102196.25;5134751;27;20058;-86
2022/10/07 09:32:22;;;;;;;12.68;2.38;;;;;;;12.90;78.89;102191.13;5139792;27;20043;-87
2022/10/07 09:34:56;;;;;;;15.13;2.53;;;;;;;13.05;78.33;102188.28;5123159;27;20418;-86
2022/10/07 09:37:37;;;;;;;;;;;;;;;;;;;;;
2022/10/07 09:40:24;;;;;;;12.80;2.08;;;;;;;13.26;79.58;102179.22;5158118;27;20027;-83
2022/10/07 09:42:59;;;;;;;8.70;2.40;;;;;;;13.39;76.67;102170.28;5139790;27;20026;-84
2022/10/07 09:45:36;;;;;;;11.63;2.28;;;;;;;13.47;76.88;102173.69;5140145;27;20029;-86
2022/10/07 09:48:06;;;;;;;8.13;2.20;;;;;;;13.54;75.98;102190.09;5139009;27;20062;-86
2022/10/07 09:50:35;;;;;;;13.73;2.10;;;;;;;13.62;74.80;102176.25;5140290;27;20095;-85
2022/10/07 09:53:02;;;;;;;11.75;2.50;;;;;;;13.66;75.96;102166.63;5139101;27;20041;-85
2022/10/07 09:55:32;;;;;;;11.50;2.13;;;;;;;13.84;75.34;102181.59;5139579;27;20076;-86
2022/10/07 09:58:01;;;;;;;16.48;2.75;;;;;;;13.89;73.08;102161.88;5139297;27;20034;-85
2022/10/07 10:00:30;;;;;;;12.60;2.78;;;;;;;13.97;73.04;102172.63;5138978;27;20033;-85
2022/10/07 10:03:06;;;;;;;14.85;3.15;;;;;;;14.07;73.45;102164.88;5157720;27;20030;-85
2022/10/07 10:05:35;;;;;;;15.30;2.15;;;;;;;14.17;72.01;102167.19;5139027;27;20031;-86
2022/10/07 10:08:09;;;;;;;14.67;2.73;;;;;;;14.21;71.29;102169.28;5138714;27;20073;-85
2022/10/07 10:10:35;;;;;;;10.45;1.75;;;;;;;14.26;69.49;102159.66;5139049;27;20488;-86
2022/10/07 10:13:08;;;;;;;17.17;2.38;;;;;;;14.25;71.08;102145.16;5157225;27;20022;-86
2022/10/07 10:15:41;;;;;;;10.77;2.30;;;;;;;14.43;71.08;102144.53;5121944;27;20030;-86
2022/10/07 10:18:32;;;;;;;14.05;2.40;;;;;;;14.67;70.52;102143.09;5139319;27;20026;-85
2022/10/07 10:21:20;;;;;;;13.93;2.50;;;;;;;14.86;69.15;102143.28;5139577;27;20031;-85
2022/10/07 10:23:51;;;;;;;10.80;2.25;;;;;;;14.84;67.19;102121.66;5138866;27;20027;-86
2022/10/07 10:26:49;;;;;;;15.57;2.35;;;;;;;14.89;67.60;102140.97;5137873;27;20454;-85
2022/10/07 10:29:42;;;;;;;12.32;2.20;;;;;;;15.01;67.99;102129.38;5056240;28;20041;-85
2022/10/07 10:32:16;;;;;;;13.27;2.45;;;;;;;15.19;67.51;102118.63;5081876;27;20035;-85
2022/10/07 10:38:50;;;;;;;16.55;2.72;;;;;;;15.93;65.95;102110.09;5113656;27;20539;-85
2022/10/07 10:41:29;;;;;;;10.52;2.10;;;;;;;16.09;64.88;102114.19;5138621;27;20058;-85
2022/10/07 10:44:24;;;;;;;14.55;2.33;;;;;;;16.03;63.19;102093.16;5138816;27;20033;-85
2022/10/07 10:47:28;;;;;;;13.45;2.67;;;;;;;16.17;62.58;102099.41;5121235;27;20126;-85
2022/10/07 10:50:31;;;;;;;7.40;1.70;;;;;;;16.29;60.41;102112.13;5138758;27;20026;-85
2022/10/07 10:53:16;;;;;;;9.13;2.10;;;;;;;16.43;61.28;102082.75;5138803;27;20074;-85
2022/10/07 10:56:03;;;;;;;11.35;2.30;;;;;;;16.79;61.49;102092.06;5138596;27;20490;-86
2022/10/07 10:58:32;;;;;;;8.05;2.05;;;;;;;17.34;59.17;102095.91;5138333;27;20022;-85
2022/10/07 11:01:25;;;;;;;14.15;2.50;;;;;;;18.49;55.71;102072.00;5156840;27;20031;-86
2022/10/07 11:04:20;;;;;;;10.07;2.07;;;;;;;20.69;49.89;102062.72;5138781;27;20031;-86
2022/10/07 11:06:54;;;;;;;9.35;2.05;;;;;;;21.49;45.64;102076.94;5138460;27;20095;-86
2022/10/07 11:09:32;;;;;;;11.20;2.20;;;;;;;21.33;44.70;102064.94;5138427;27;20114;-85
2022/10/07 11:12:03;;;;;;;12.23;1.90;;;;;;;22.10;43.28;102064.03;5138289;27;20369;-85
2022/10/07 11:14:35;;;;;;;9.13;2.28;;;;;;;22.85;41.37;102055.69;5139035;27;20091;-85
2022/10/07 11:17:05;;;;;;;11.47;2.43;;;;;;;23.58;39.95;102041.03;5138257;27;20373;-86
2022/10/07 11:20:01;;;;;;;10.27;2.85;;;;;;;25.01;39.39;102055.88;5138197;27;20035;-86
2022/10/07 11:22:34;;;;;;;18.23;2.83;;;;;;;26.52;36.27;102035.84;5137868;27;20023;-86
2022/10/07 11:25:21;;;;;;;11.77;2.25;;;;;;;27.03;34.54;102037.25;5156237;27;20023;-85
2022/10/07 11:27:52;;;;;;;10.90;3.03;;;;;;;28.11;33.05;102029.19;5137777;27;20031;-86
2022/10/07 11:30:22;;;;;;;15.60;2.70;;;;;;;27.91;31.59;102027.59;5137493;27;20034;-87
2022/10/07 11:33:14;;;;;;;12.02;2.85;;;;;;;27.84;32.49;102019.59;5156664;27;20459;-86
2022/10/07 11:35:49;;;;;;;6.30;2.70;;;;;;;27.82;32.07;102008.75;5137649;27;20033;-86
2022/10/07 11:38:32;;;;;;;11.85;2.80;;;;;;;28.27;31.00;101999.91;5138177;27;20030;-86
2022/10/07 11:41:16;;;;;;;13.60;2.97;;;;;;;27.98;30.78;101998.19;5156703;27;20035;-86
2022/10/07 11:43:48;;;;;;;11.83;3.10;;;;;;;27.75;30.28;101990.75;5137268;27;20474;-87
2022/10/07 11:46:32;;;;;;;9.93;2.88;;;;;;;27.94;30.57;101988.75;5137274;27;20398;-87
2022/10/07 11:49:13;;;;;;;8.00;2.63;;;;;;;27.83;30.26;101973.34;5137631;27;20522;-87
2022/10/07 11:51:54;;;;;;;8.15;2.65;;;;;;;27.45;30.93;101984.56;5155599;27;20152;-86
2022/10/07 11:54:23;;;;;;;9.18;2.58;;;;;;;28.21;29.73;101962.06;5137472;27;20370;-87
2022/10/07 11:56:51;;;;;;;11.77;2.47;;;;;;;28.60;28.55;101954.31;5156292;27;20023;-86
2022/10/07 11:59:46;;;;;;;13.75;3.03;;;;;;;29.30;28.85;101981.00;5136905;27;20026;-87